createdAt,value
2022-12-25T00:01:52.092Z,75.83
2022-12-25T00:03:57.784Z,75.66
2022-12-25T00:06:00.723Z,76.03
2022-12-25T00:08:03.547Z,76.28
2022-12-25T00:10:09.609Z,76.35
2022-12-25T00:12:12.426Z,76.59
2022-12-25T00:14:15.278Z,76.01
2022-12-25T00:16:21.719Z,76.21
2022-12-25T00:18:24.774Z,76.46
2022-12-25T00:20:27.568Z,75.65
2022-12-25T00:22:30.605Z,76.60
2022-12-25T00:24:33.475Z,75.64
2022-12-25T00:26:37.615Z,75.82
2022-12-25T00:28:40.881Z,75.95
2022-12-25T00:30:43.700Z,76.13
2022-12-25T00:32:46.451Z,75.62
2022-12-25T00:34:49.326Z,75.49
2022-12-25T00:36:52.339Z,76.44
2022-12-25T00:38:55.235Z,75.77
2022-12-25T00:40:58.018Z,75.87
2022-12-25T00:43:01.215Z,75.67
2022-12-25T00:45:05.728Z,75.43
2022-12-25T00:47:08.683Z,76.54
2022-12-25T00:49:12.430Z,76.22
2022-12-25T00:51:15.262Z,75.83
2022-12-25T00:53:18.070Z,76.13
2022-12-25T00:55:20.811Z,76.34
2022-12-25T00:57:23.525Z,76.20
2022-12-25T00:59:27.619Z,75.96
2022-12-25T01:01:30.740Z,76.33
2022-12-25T01:03:33.689Z,76.79
2022-12-25T01:05:36.501Z,76.16
2022-12-25T01:07:39.333Z,76.86
2022-12-25T01:10:00.188Z,76.21
2022-12-25T01:12:03.083Z,76.49
2022-12-25T01:14:05.914Z,76.41
2022-12-25T01:16:12.426Z,76.10
2022-12-25T01:18:15.349Z,76.14
2022-12-25T01:20:19.111Z,76.28
2022-12-25T01:22:22.112Z,76.79
2022-12-25T01:24:24.876Z,76.27
2022-12-25T01:26:28.762Z,76.71
2022-12-25T01:28:31.565Z,76.63
2022-12-25T01:30:35.366Z,76.68
2022-12-25T01:32:39.538Z,76.43
2022-12-25T01:34:42.310Z,76.28
2022-12-25T01:36:45.083Z,76.90
2022-12-25T01:38:48.472Z,76.40
2022-12-25T01:40:51.280Z,76.67
2022-12-25T01:42:54.199Z,76.07
2022-12-25T01:45:37.245Z,76.33
2022-12-25T01:47:41.439Z,76.31
2022-12-25T01:49:47.599Z,75.86
2022-12-25T01:51:55.503Z,76.52
2022-12-25T01:54:00.841Z,76.61
2022-12-25T01:56:08.031Z,76.72
2022-12-25T01:58:10.951Z,76.02
2022-12-25T02:00:16.148Z,76.18
2022-12-25T02:02:19.317Z,76.28
2022-12-25T02:04:38.480Z,76.64
2022-12-25T02:06:42.902Z,76.58
2022-12-25T02:08:45.858Z,76.90
2022-12-25T02:10:49.227Z,76.68
2022-12-25T02:12:52.600Z,76.43
2022-12-25T02:15:04.814Z,76.74
2022-12-25T02:17:14.331Z,76.58
2022-12-25T02:19:32.958Z,76.39
2022-12-25T02:22:01.026Z,76.68
2022-12-25T02:24:28.907Z,76.85
2022-12-25T02:26:58.483Z,76.45
2022-12-25T02:29:10.743Z,76.32
2022-12-25T02:31:18.712Z,76.90
2022-12-25T02:33:46.954Z,76.78
2022-12-25T02:35:54.877Z,76.44
2022-12-25T02:38:04.140Z,76.30
2022-12-25T02:40:15.076Z,76.51
2022-12-25T02:42:45.167Z,76.65
2022-12-25T02:45:10.372Z,76.24
2022-12-25T02:47:30.897Z,76.38
2022-12-25T02:49:52.723Z,76.82
2022-12-25T02:52:23.862Z,77.00
2022-12-25T02:54:57.942Z,77.10
2022-12-25T02:57:22.066Z,76.38
2022-12-25T02:59:42.782Z,76.94
2022-12-25T03:02:05.011Z,76.90
2022-12-25T03:04:29.894Z,76.41
2022-12-25T03:06:46.890Z,76.75
2022-12-25T03:08:54.890Z,76.58
2022-12-25T03:11:20.098Z,76.28
2022-12-25T03:13:27.290Z,76.06
2022-12-25T03:15:47.748Z,76.07
2022-12-25T03:17:51.011Z,76.46
2022-12-25T03:20:13.485Z,76.21
2022-12-25T03:22:38.248Z,76.40
2022-12-25T03:24:59.596Z,76.08
2022-12-25T03:27:02.499Z,75.92
2022-12-25T03:29:05.353Z,75.73
2022-12-25T03:31:14.973Z,75.35
2022-12-25T03:33:44.490Z,75.56
2022-12-25T03:36:02.569Z,75.80
2022-12-25T03:38:46.073Z,75.47
2022-12-25T03:41:16.644Z,75.45
2022-12-25T03:43:57.630Z,75.68
2022-12-25T03:46:24.467Z,75.92
2022-12-25T03:48:49.757Z,75.64
2022-12-25T03:51:16.267Z,75.91
2022-12-25T03:53:41.139Z,75.45
2022-12-25T03:56:02.336Z,75.79
2022-12-25T03:58:22.776Z,75.54
2022-12-25T04:00:43.078Z,76.18
2022-12-25T04:02:59.899Z,75.59
2022-12-25T04:05:22.912Z,75.60
2022-12-25T04:07:43.553Z,75.45
2022-12-25T04:10:03.919Z,76.00
2022-12-25T04:12:25.156Z,75.37
2022-12-25T04:14:45.394Z,75.81
2022-12-25T04:17:05.723Z,75.29
2022-12-25T04:19:27.998Z,75.83
2022-12-25T04:21:49.579Z,75.88
2022-12-25T04:24:09.888Z,75.40
2022-12-25T04:26:30.267Z,75.92
2022-12-25T04:28:50.661Z,75.50
2022-12-25T04:31:11.095Z,75.66
2022-12-25T04:33:31.798Z,75.47
2022-12-25T04:35:51.897Z,75.04
2022-12-25T04:37:56.154Z,75.04
2022-12-25T04:39:58.959Z,74.84
2022-12-25T04:42:01.804Z,74.67
2022-12-25T04:44:04.925Z,74.87
2022-12-25T04:46:07.774Z,74.97
2022-12-25T04:48:10.602Z,75.31
2022-12-25T04:50:13.699Z,75.38
2022-12-25T04:52:16.486Z,75.64
2022-12-25T04:54:20.691Z,74.80
2022-12-25T04:56:24.252Z,75.77
2022-12-25T04:58:27.008Z,74.93
2022-12-25T05:00:30.078Z,75.58
2022-12-25T05:02:33.495Z,75.39
2022-12-25T05:04:36.542Z,75.51
2022-12-25T05:06:40.185Z,75.18
2022-12-25T05:08:43.011Z,74.96
2022-12-25T05:10:47.254Z,75.09
2022-12-25T05:12:50.092Z,75.29
2022-12-25T05:14:52.956Z,75.06
2022-12-25T05:16:55.817Z,74.54
2022-12-25T05:18:58.656Z,75.10
2022-12-25T05:21:01.469Z,75.08
2022-12-25T05:23:04.292Z,74.77
2022-12-25T05:25:08.047Z,75.18
2022-12-25T05:27:12.219Z,74.82
2022-12-25T05:29:14.997Z,75.45
2022-12-25T05:31:18.441Z,75.43
2022-12-25T05:33:21.296Z,74.92
2022-12-25T05:35:24.183Z,75.63
2022-12-25T05:37:26.960Z,75.52
2022-12-25T05:39:30.177Z,75.25
2022-12-25T05:41:34.730Z,75.61
2022-12-25T05:43:38.997Z,75.35
2022-12-25T05:45:41.783Z,75.13
2022-12-25T05:47:44.580Z,75.32
2022-12-25T05:49:47.392Z,74.88
2022-12-25T05:51:50.243Z,74.61
2022-12-25T05:53:53.177Z,75.14
2022-12-25T05:55:56.012Z,75.06
2022-12-25T05:57:58.819Z,75.24
2022-12-25T06:00:03.009Z,74.90
2022-12-25T06:02:15.411Z,74.48
2022-12-25T06:04:18.328Z,75.05
2022-12-25T06:06:21.227Z,74.99
2022-12-25T06:08:23.981Z,75.15
2022-12-25T06:10:26.760Z,74.44
2022-12-25T06:12:29.586Z,74.85
2022-12-25T06:14:32.457Z,74.49
2022-12-25T06:16:38.363Z,74.53
2022-12-25T06:18:44.693Z,74.66
2022-12-25T06:20:48.085Z,74.33
2022-12-25T06:22:50.890Z,74.49
2022-12-25T06:24:54.303Z,74.64
2022-12-25T06:26:57.105Z,74.78
2022-12-25T06:28:59.920Z,74.59
2022-12-25T06:31:07.446Z,74.89
2022-12-25T06:33:11.869Z,74.92
2022-12-25T06:35:14.751Z,75.21
2022-12-25T06:37:17.565Z,75.21
2022-12-25T06:39:21.372Z,74.77
2022-12-25T06:41:26.179Z,75.04
2022-12-25T06:43:28.792Z,75.47
2022-12-25T06:45:31.664Z,74.92
2022-12-25T06:47:34.591Z,74.88
2022-12-25T06:49:38.802Z,75.57
2022-12-25T06:51:41.670Z,75.29
2022-12-25T06:53:44.462Z,75.16
2022-12-25T06:55:47.455Z,74.82
2022-12-25T06:57:50.225Z,75.38
2022-12-25T06:59:55.385Z,75.25
2022-12-25T07:01:58.801Z,75.52
2022-12-25T07:04:06.659Z,75.26
2022-12-25T07:06:10.729Z,75.10
2022-12-25T07:08:13.589Z,75.17
2022-12-25T07:10:16.546Z,74.68
2022-12-25T07:12:21.737Z,74.85
2022-12-25T07:14:24.885Z,74.49
2022-12-25T07:16:27.927Z,74.91
2022-12-25T07:18:31.398Z,75.17
2022-12-25T07:20:34.179Z,75.42
2022-12-25T07:22:38.329Z,75.63
2022-12-25T07:24:41.257Z,75.31
2022-12-25T07:26:44.096Z,74.94
2022-12-25T07:28:47.005Z,75.84
2022-12-25T07:30:50.239Z,75.43
2022-12-25T07:32:52.995Z,75.30
2022-12-25T07:34:55.913Z,75.17
2022-12-25T07:36:58.795Z,75.19
2022-12-25T07:39:02.893Z,74.49
2022-12-25T07:41:08.830Z,74.96
2022-12-25T07:43:11.573Z,75.39
2022-12-25T07:45:14.485Z,75.34
2022-12-25T07:47:17.467Z,75.37
2022-12-25T07:49:20.309Z,74.94
2022-12-25T07:51:23.513Z,75.03
2022-12-25T07:53:27.135Z,75.02
2022-12-25T07:55:31.307Z,75.37
2022-12-25T07:57:36.336Z,75.30
2022-12-25T07:59:39.075Z,75.20
2022-12-25T08:01:42.021Z,75.41
2022-12-25T08:03:49.270Z,75.70
2022-12-25T08:05:52.480Z,75.40
2022-12-25T08:07:58.076Z,75.72
2022-12-25T08:10:01.099Z,74.86
2022-12-25T08:12:05.497Z,74.79
2022-12-25T08:14:09.239Z,75.05
2022-12-25T08:16:15.252Z,75.53
2022-12-25T08:18:22.247Z,75.39
2022-12-25T08:20:28.906Z,75.75
2022-12-25T08:22:31.672Z,74.88
2022-12-25T08:24:34.601Z,75.52
2022-12-25T08:26:37.470Z,75.03
2022-12-25T08:28:41.959Z,75.27
2022-12-25T08:30:44.761Z,75.44
2022-12-25T08:32:47.596Z,75.44
2022-12-25T08:34:50.407Z,75.33
2022-12-25T08:36:53.146Z,75.77
2022-12-25T08:39:02.627Z,75.97
2022-12-25T08:41:06.641Z,75.22
2022-12-25T08:43:09.486Z,75.97
2022-12-25T08:45:13.923Z,75.20
2022-12-25T08:47:16.813Z,76.03
2022-12-25T08:49:19.652Z,75.80
2022-12-25T08:51:24.746Z,75.58
2022-12-25T08:53:27.698Z,76.28
2022-12-25T08:55:30.487Z,75.31
2022-12-25T08:57:33.312Z,75.81
2022-12-25T08:59:36.153Z,75.78
2022-12-25T09:01:40.314Z,75.46
2022-12-25T09:03:43.490Z,75.29
2022-12-25T09:05:46.865Z,76.16
2022-12-25T09:07:49.665Z,75.63
2022-12-25T09:09:52.503Z,76.10
2022-12-25T09:11:55.571Z,76.46
2022-12-25T09:13:58.448Z,76.49
2022-12-25T09:16:01.463Z,76.59
2022-12-25T09:18:05.922Z,76.65
2022-12-25T09:20:09.291Z,76.69
2022-12-25T09:22:12.095Z,76.58
2022-12-25T09:24:14.872Z,76.61
2022-12-25T09:26:19.443Z,76.55
2022-12-25T09:28:22.711Z,76.19
2022-12-25T09:30:25.568Z,76.18
2022-12-25T09:32:28.343Z,75.61
2022-12-25T09:34:32.614Z,76.44
2022-12-25T09:36:35.439Z,76.14
2022-12-25T09:38:38.269Z,75.38
2022-12-25T09:40:41.215Z,75.49
2022-12-25T09:42:45.060Z,75.88
2022-12-25T09:44:52.337Z,74.84
2022-12-25T09:47:00.317Z,74.91
2022-12-25T09:49:07.741Z,74.78
2022-12-25T09:51:16.613Z,74.10
2022-12-25T09:53:23.770Z,74.20
2022-12-25T09:55:30.856Z,73.99
2022-12-25T09:57:34.242Z,74.57
2022-12-25T09:59:37.053Z,73.71
2022-12-25T10:01:49.102Z,74.32
2022-12-25T10:04:07.020Z,73.50
2022-12-25T10:06:18.932Z,73.75
2022-12-25T10:08:35.981Z,73.66
2022-12-25T10:10:51.807Z,74.04
2022-12-25T10:13:02.765Z,73.78
2022-12-25T10:15:19.194Z,73.33
2022-12-25T10:17:33.437Z,73.28
2022-12-25T10:19:46.257Z,73.99
2022-12-25T10:21:55.077Z,73.98
2022-12-25T10:24:09.271Z,73.64
2022-12-25T10:26:16.541Z,73.68
2022-12-25T10:28:27.571Z,73.21
2022-12-25T10:30:32.305Z,73.48
2022-12-25T10:32:35.138Z,73.02
2022-12-25T10:34:41.598Z,73.18
2022-12-25T10:36:46.518Z,73.25
2022-12-25T10:38:50.992Z,73.23
2022-12-25T10:41:04.805Z,72.93
2022-12-25T10:43:13.872Z,73.08
2022-12-25T10:45:17.324Z,72.43
2022-12-25T10:47:25.395Z,72.80
2022-12-25T10:49:32.058Z,73.47
2022-12-25T10:51:37.336Z,73.54
2022-12-25T10:53:41.876Z,73.53
2022-12-25T10:55:55.311Z,73.61
2022-12-25T10:57:59.042Z,73.87
2022-12-25T11:00:01.983Z,73.65
2022-12-25T11:02:15.046Z,74.40
2022-12-25T11:04:22.546Z,74.46
2022-12-25T11:06:32.993Z,74.02
2022-12-25T11:08:36.143Z,73.79
2022-12-25T11:10:42.090Z,73.24
2022-12-25T11:12:50.505Z,73.26
2022-12-25T11:14:56.121Z,73.29
2022-12-25T11:17:08.405Z,72.87
2022-12-25T11:19:25.716Z,73.40
2022-12-25T11:21:30.735Z,73.49
2022-12-25T11:23:33.870Z,73.53
2022-12-25T11:25:36.708Z,73.38
2022-12-25T11:27:39.489Z,73.46
2022-12-25T11:29:47.773Z,73.57
2022-12-25T11:31:52.248Z,73.59
2022-12-25T11:34:00.057Z,73.29
2022-12-25T11:36:10.259Z,73.69
2022-12-25T11:38:13.091Z,73.37
2022-12-25T11:40:16.762Z,73.74
2022-12-25T11:42:23.362Z,73.93
2022-12-25T11:44:35.352Z,73.17
2022-12-25T11:46:45.846Z,72.86
2022-12-25T11:48:56.024Z,72.73
2022-12-25T11:51:02.278Z,72.92
2022-12-25T11:53:08.387Z,73.12
2022-12-25T11:55:19.464Z,73.12
2022-12-25T11:57:24.582Z,73.64
2022-12-25T11:59:33.935Z,73.12
2022-12-25T12:01:44.580Z,73.55
2022-12-25T12:03:47.518Z,73.06
2022-12-25T12:05:54.202Z,72.89
2022-12-25T12:08:00.856Z,72.71
2022-12-25T12:10:11.394Z,72.93
2022-12-25T12:12:21.548Z,72.71
2022-12-25T12:14:40.114Z,72.94
2022-12-25T12:16:44.403Z,73.02
2022-12-25T12:18:50.554Z,72.69
2022-12-25T12:21:05.832Z,72.83
2022-12-25T12:23:16.664Z,72.37
2022-12-25T12:25:20.150Z,72.43
2022-12-25T12:27:27.709Z,72.37
2022-12-25T12:29:36.251Z,72.78
2022-12-25T12:31:40.703Z,72.50
2022-12-25T12:33:51.645Z,72.35
2022-12-25T12:35:54.832Z,72.12
2022-12-25T12:38:01.505Z,71.27
2022-12-25T12:40:07.645Z,71.37
2022-12-25T12:42:15.752Z,71.16
2022-12-25T12:44:19.306Z,71.53
2022-12-25T12:46:30.691Z,70.88
2022-12-25T12:48:40.637Z,70.88
2022-12-25T12:50:44.897Z,70.94
2022-12-25T12:52:48.118Z,70.95
2022-12-25T12:54:57.665Z,71.25
2022-12-25T12:57:02.155Z,71.23
2022-12-25T12:59:05.003Z,71.89
2022-12-25T13:01:15.440Z,71.16
2022-12-25T13:03:39.512Z,71.59
2022-12-25T13:05:48.031Z,71.50
2022-12-25T13:08:00.459Z,71.53
2022-12-25T13:10:14.407Z,71.08
2022-12-25T13:12:18.496Z,71.57
2022-12-25T13:14:24.013Z,71.05
2022-12-25T13:16:30.953Z,71.04
2022-12-25T13:18:34.698Z,71.36
2022-12-25T13:20:46.280Z,71.02
2022-12-25T13:22:53.146Z,70.72
2022-12-25T13:24:58.310Z,70.91
2022-12-25T13:27:03.326Z,70.65
2022-12-25T13:29:11.288Z,70.66
2022-12-25T13:31:18.941Z,70.42
2022-12-25T13:33:21.836Z,70.24
2022-12-25T13:35:25.054Z,70.56
2022-12-25T13:37:31.479Z,70.73
2022-12-25T13:39:37.583Z,70.38
2022-12-25T13:42:04.668Z,70.32
2022-12-25T13:44:17.156Z,70.24
2022-12-25T13:46:26.961Z,70.47
2022-12-25T13:48:31.368Z,70.69
2022-12-25T13:50:35.809Z,70.67
2022-12-25T13:52:39.406Z,70.62
2022-12-25T13:54:57.523Z,70.81
2022-12-25T13:57:00.359Z,70.82
2022-12-25T13:59:04.797Z,70.89
2022-12-25T14:01:08.090Z,70.78
2022-12-25T14:03:19.222Z,70.56
2022-12-25T14:05:27.746Z,71.00
2022-12-25T14:07:30.579Z,70.69
2022-12-25T14:09:33.796Z,71.05
2022-12-25T14:11:39.480Z,70.76
2022-12-25T14:13:45.163Z,70.71
2022-12-25T14:15:49.605Z,71.16
2022-12-25T14:17:53.426Z,71.34
2022-12-25T14:20:08.016Z,70.72
2022-12-25T14:22:15.038Z,70.50
2022-12-25T14:24:26.806Z,71.01
2022-12-25T14:26:31.735Z,70.58
2022-12-25T14:28:37.674Z,70.79
2022-12-25T14:30:43.523Z,70.34
2022-12-25T14:32:51.689Z,70.69
2022-12-25T14:34:57.929Z,70.64
2022-12-25T14:37:01.500Z,71.04
2022-12-25T14:39:07.628Z,70.64
2022-12-25T14:41:25.904Z,70.47
2022-12-25T14:43:30.315Z,70.73
2022-12-25T14:45:36.113Z,70.96
2022-12-25T14:47:51.812Z,70.68
2022-12-25T14:49:54.928Z,70.54
2022-12-25T14:51:57.804Z,70.63
2022-12-25T14:54:03.835Z,71.37
2022-12-25T14:56:09.251Z,71.17
2022-12-25T14:58:21.619Z,71.58
2022-12-25T15:00:28.136Z,70.77
2022-12-25T15:02:41.308Z,70.80
2022-12-25T15:04:44.634Z,71.51
2022-12-25T15:06:55.302Z,71.38
2022-12-25T15:08:59.400Z,71.79
2022-12-25T15:11:03.540Z,71.61
2022-12-25T15:13:07.067Z,71.77
2022-12-25T15:15:10.961Z,71.99
2022-12-25T15:17:26.297Z,71.43
2022-12-25T15:19:36.869Z,71.92
2022-12-25T15:21:40.439Z,71.74
2022-12-25T15:23:43.416Z,71.50
2022-12-25T15:25:47.328Z,71.64
2022-12-25T15:27:50.310Z,71.92
2022-12-25T15:30:09.809Z,71.99
2022-12-25T15:32:17.704Z,71.97
2022-12-25T15:34:21.816Z,72.00
2022-12-25T15:36:26.548Z,72.06
2022-12-25T15:38:36.315Z,72.07
2022-12-25T15:40:39.510Z,72.10
2022-12-25T15:42:44.793Z,72.21
2022-12-25T15:44:48.073Z,72.14
2022-12-25T15:46:51.306Z,72.25
2022-12-25T15:48:54.133Z,72.38
2022-12-25T15:51:01.135Z,72.33
2022-12-25T15:53:05.272Z,71.71
2022-12-25T15:55:08.952Z,72.07
2022-12-25T15:57:18.759Z,71.88
2022-12-25T15:59:22.523Z,72.24
2022-12-25T16:01:25.406Z,72.63
2022-12-25T16:03:28.360Z,72.51
2022-12-25T16:05:31.194Z,72.34
2022-12-25T16:07:34.019Z,72.57
2022-12-25T16:09:38.391Z,72.32
2022-12-25T16:11:41.942Z,72.36
2022-12-25T16:13:45.836Z,72.35
2022-12-25T16:15:48.932Z,72.42
2022-12-25T16:17:51.814Z,72.10
2022-12-25T16:19:54.646Z,72.66
2022-12-25T16:21:57.598Z,72.62
2022-12-25T16:24:00.394Z,72.76
2022-12-25T16:26:04.597Z,72.50
2022-12-25T16:28:10.202Z,72.44
2022-12-25T16:30:15.800Z,72.80
2022-12-25T16:32:18.544Z,72.70
2022-12-25T16:34:21.354Z,72.60
2022-12-25T16:36:29.485Z,72.85
2022-12-25T16:38:32.432Z,72.94
2022-12-25T16:40:37.937Z,73.21
2022-12-25T16:42:42.094Z,73.52
2022-12-25T16:44:47.348Z,73.41
2022-12-25T16:46:50.310Z,73.21
2022-12-25T16:48:53.204Z,73.86
2022-12-25T16:50:56.337Z,73.48
2022-12-25T16:52:59.167Z,73.30
2022-12-25T16:55:03.119Z,73.19
2022-12-25T16:57:05.964Z,73.67
2022-12-25T16:59:10.177Z,73.92
2022-12-25T17:01:15.805Z,73.71
2022-12-25T17:03:19.017Z,73.55
2022-12-25T17:05:21.860Z,73.49
2022-12-25T17:07:24.732Z,73.55
2022-12-25T17:09:27.560Z,73.68
2022-12-25T17:11:31.043Z,73.47
2022-12-25T17:13:33.869Z,74.19
2022-12-25T17:15:38.006Z,73.88
2022-12-25T17:17:41.631Z,74.04
2022-12-25T17:19:44.484Z,74.09
2022-12-25T17:21:47.927Z,73.66
2022-12-25T17:23:58.065Z,74.02
2022-12-25T17:26:04.938Z,73.50
2022-12-25T17:28:07.750Z,74.09
2022-12-25T17:30:11.551Z,74.30
2022-12-25T17:32:15.948Z,73.99
2022-12-25T17:34:19.006Z,74.22
2022-12-25T17:36:23.052Z,73.87
2022-12-25T17:38:25.874Z,74.61
2022-12-25T17:40:29.802Z,74.39
2022-12-25T17:42:32.935Z,74.31
2022-12-25T17:44:35.864Z,74.19
2022-12-25T17:46:38.893Z,74.63
2022-12-25T17:48:43.496Z,74.11
2022-12-25T17:50:46.469Z,73.91
2022-12-25T17:52:49.306Z,74.36
2022-12-25T17:54:52.172Z,74.75
2022-12-25T17:56:55.092Z,74.57
2022-12-25T17:58:59.963Z,75.04
2022-12-25T18:01:06.708Z,74.68
2022-12-25T18:03:11.806Z,74.82
2022-12-25T18:05:16.685Z,74.84
2022-12-25T18:07:19.459Z,75.19
2022-12-25T18:09:22.287Z,75.00
2022-12-25T18:11:29.122Z,75.43
2022-12-25T18:13:32.610Z,75.37
2022-12-25T18:15:40.312Z,75.41
2022-12-25T18:17:43.269Z,75.04
2022-12-25T18:19:46.212Z,75.20
2022-12-25T18:21:51.138Z,75.63
2022-12-25T18:23:53.836Z,75.19
2022-12-25T18:25:57.040Z,75.52
2022-12-25T18:28:02.338Z,75.98
2022-12-25T18:30:06.700Z,75.38
2022-12-25T18:32:09.682Z,75.07
2022-12-25T18:34:12.511Z,76.17
2022-12-25T18:36:17.541Z,75.46
2022-12-25T18:38:21.727Z,75.65
2022-12-25T18:40:24.754Z,76.25
2022-12-25T18:42:39.664Z,76.41
2022-12-25T18:44:42.621Z,75.95
2022-12-25T18:46:45.390Z,76.33
2022-12-25T18:48:48.131Z,76.09
2022-12-25T18:50:57.071Z,76.15
2022-12-25T18:53:00.090Z,75.63
2022-12-25T18:55:04.699Z,75.59
2022-12-25T18:57:07.559Z,76.44
2022-12-25T18:59:10.404Z,75.53
2022-12-25T19:01:16.025Z,75.77
2022-12-25T19:03:19.061Z,75.91
2022-12-25T19:05:21.857Z,76.39
2022-12-25T19:07:24.841Z,76.29
2022-12-25T19:09:27.674Z,75.74
2022-12-25T19:11:31.796Z,76.34
2022-12-25T19:13:34.751Z,75.69
2022-12-25T19:15:42.239Z,76.03
2022-12-25T19:17:45.002Z,75.24
2022-12-25T19:19:48.092Z,75.03
2022-12-25T19:21:53.207Z,75.25
2022-12-25T19:23:57.052Z,75.27
2022-12-25T19:25:59.873Z,75.40
2022-12-25T19:28:04.043Z,75.20
2022-12-25T19:30:08.443Z,75.36
2022-12-25T19:32:11.471Z,75.03
2022-12-25T19:34:14.360Z,75.19
2022-12-25T19:36:17.524Z,75.23
2022-12-25T19:38:20.485Z,74.92
2022-12-25T19:40:23.481Z,75.05
2022-12-25T19:42:26.700Z,74.33
2022-12-25T19:44:30.867Z,74.40
2022-12-25T19:46:36.310Z,74.88
2022-12-25T19:48:39.035Z,74.91
2022-12-25T19:50:43.547Z,74.83
2022-12-25T19:52:46.347Z,74.61
2022-12-25T19:54:52.172Z,75.27
2022-12-25T19:56:54.925Z,74.95
2022-12-25T19:58:58.307Z,75.20
2022-12-25T20:01:05.983Z,74.55
2022-12-25T20:03:08.968Z,74.28
2022-12-25T20:05:11.827Z,74.22
2022-12-25T20:07:14.747Z,74.13
2022-12-25T20:09:21.341Z,73.42
2022-12-25T20:11:27.919Z,72.91
2022-12-25T20:13:30.707Z,72.94
2022-12-25T20:15:33.441Z,72.53
2022-12-25T20:17:37.670Z,73.13
2022-12-25T20:19:40.586Z,72.78
2022-12-25T20:21:43.382Z,72.88
2022-12-25T20:23:48.582Z,72.37
2022-12-25T20:25:52.520Z,73.07
2022-12-25T20:27:55.373Z,71.73
2022-12-25T20:29:58.206Z,71.41
2022-12-25T20:32:01.044Z,72.16
2022-12-25T20:34:08.247Z,72.14
2022-12-25T20:36:11.465Z,72.58
2022-12-25T20:38:14.328Z,71.77
2022-12-25T20:40:17.282Z,71.99
2022-12-25T20:42:20.334Z,71.71
2022-12-25T20:44:23.168Z,72.04
2022-12-25T20:46:26.466Z,71.90
2022-12-25T20:48:29.552Z,72.04
2022-12-25T20:50:33.704Z,72.00
2022-12-25T20:52:36.529Z,72.32
2022-12-25T20:54:39.409Z,72.56
2022-12-25T20:56:42.201Z,71.83
2022-12-25T20:58:45.209Z,72.16
2022-12-25T21:00:47.957Z,72.65
2022-12-25T21:02:50.942Z,72.55
2022-12-25T21:04:54.412Z,72.78
2022-12-25T21:06:58.529Z,72.89
2022-12-25T21:09:01.367Z,72.51
2022-12-25T21:11:05.219Z,72.94
2022-12-25T21:13:08.009Z,73.41
2022-12-25T21:15:15.431Z,73.04
2022-12-25T21:17:18.752Z,73.30
2022-12-25T21:19:21.544Z,72.90
2022-12-25T21:21:24.359Z,73.17
2022-12-25T21:23:29.901Z,72.71
2022-12-25T21:25:32.738Z,72.97
2022-12-25T21:27:35.564Z,73.23
2022-12-25T21:29:38.641Z,73.23
2022-12-25T21:31:55.402Z,73.45
2022-12-25T21:33:59.306Z,73.26
2022-12-25T21:36:07.067Z,72.48
2022-12-25T21:38:10.136Z,72.31
2022-12-25T21:40:16.643Z,72.68
2022-12-25T21:42:19.698Z,72.98
2022-12-25T21:44:22.551Z,72.41
2022-12-25T21:46:26.311Z,72.81
2022-12-25T21:48:29.153Z,72.77
2022-12-25T21:50:49.505Z,72.46
2022-12-25T21:52:52.275Z,72.74
2022-12-25T21:54:55.088Z,72.18
2022-12-25T21:56:59.150Z,72.95
2022-12-25T21:59:03.216Z,72.21
2022-12-25T22:01:06.458Z,72.46
2022-12-25T22:03:09.396Z,72.17
2022-12-25T22:05:33.811Z,72.13
2022-12-25T22:07:35.659Z,72.18
2022-12-25T22:09:38.834Z,72.46
2022-12-25T22:11:59.435Z,72.61
2022-12-25T22:14:52.072Z,72.19
2022-12-25T22:17:02.169Z,72.54
2022-12-25T22:19:22.257Z,72.94
2022-12-25T22:21:25.057Z,72.63
2022-12-25T22:23:27.846Z,72.62
2022-12-25T22:25:30.938Z,72.01
2022-12-25T22:27:36.231Z,71.93
2022-12-25T22:29:40.541Z,72.14
2022-12-25T22:31:46.932Z,72.37
2022-12-25T22:33:49.972Z,72.10
2022-12-25T22:36:02.296Z,72.09
2022-12-25T22:38:05.165Z,72.21
2022-12-25T22:40:09.931Z,71.90
2022-12-25T22:42:13.745Z,72.07
2022-12-25T22:44:18.100Z,71.63
2022-12-25T22:46:22.481Z,72.11
2022-12-25T22:48:25.316Z,72.38
2022-12-25T22:50:28.098Z,72.01
2022-12-25T22:52:30.884Z,72.18
2022-12-25T22:54:33.711Z,72.27
2022-12-25T22:56:36.822Z,71.79
2022-12-25T22:58:39.719Z,71.71
2022-12-25T23:00:46.626Z,72.58
2022-12-25T23:02:51.095Z,72.20
2022-12-25T23:04:54.211Z,72.31
2022-12-25T23:06:57.343Z,71.72
2022-12-25T23:09:00.701Z,71.88
2022-12-25T23:11:06.009Z,71.76
2022-12-25T23:13:33.233Z,71.48
2022-12-25T23:15:36.195Z,71.40
2022-12-25T23:17:56.854Z,71.27
2022-12-25T23:20:19.724Z,70.71
2022-12-25T23:22:39.942Z,71.21
2022-12-25T23:25:03.167Z,70.89
2022-12-25T23:27:05.990Z,71.00
2022-12-25T23:29:26.379Z,70.77
2022-12-25T23:31:32.081Z,71.03
2022-12-25T23:33:35.235Z,70.21
2022-12-25T23:35:39.335Z,70.47
2022-12-25T23:37:42.157Z,70.28
2022-12-25T23:39:45.202Z,69.87
2022-12-25T23:41:50.080Z,69.92
2022-12-25T23:43:52.900Z,70.01
2022-12-25T23:45:55.653Z,70.57
2022-12-25T23:47:58.470Z,70.71
2022-12-25T23:50:01.321Z,70.09
2022-12-25T23:52:05.892Z,70.22
2022-12-25T23:54:08.757Z,69.96
2022-12-25T23:56:11.601Z,70.06
2022-12-25T23:58:14.393Z,69.90
